EZY82KL LOWI-EGKK
Flight info
| Callsign | EZY82KL |
|---|---|
| Flight time | 1h 31m |
| Altitude | 35000 |
| Route | KPT L856 RAVED Y112 HOC DCT LUL DCT RLP DCT ROTSI DCT KOTUN DCT NINAL DCT KESAX DCT KUNAV |
| Aircraft | A21N/M-SDE2E3FGHIRWXY/LB1 |
Departure
| Time | 2026-05-06 18:58 |
|---|---|
| Airport | Innsbruck Airport (LOWI) |
Arrival
| Time | 2026-05-06 20:30 |
|---|---|
| Airport | London Gatwick Airport (EGKK) |
| Time | Latitude | Longitude | Altitude | Speed | Heading |
|---|---|---|---|---|---|
| 2026-05-06 18:02 | 47.25825 | 11.35050 | 1906 ft | 0 kts | 171° |
| 2026-05-06 18:49 | 47.25830 | 11.35049 | 1909 ft | 3 kts | 171° |
| 2026-05-06 18:49 | 47.25855 | 11.35043 | 1896 ft | 2 kts | 171° |
| 2026-05-06 18:49 | 47.25873 | 11.35043 | 1897 ft | 4 kts | 221° |
| 2026-05-06 18:50 | 47.25881 | 11.35071 | 1897 ft | 4 kts | 261° |
| 2026-05-06 18:50 | 47.25884 | 11.35096 | 1900 ft | 0 kts | 261° |
| 2026-05-06 18:54 | 47.25883 | 11.35095 | 1909 ft | 0 kts | 261° |
| 2026-05-06 18:54 | 47.25881 | 11.35074 | 1905 ft | 4 kts | 261° |
| 2026-05-06 18:55 | 47.25875 | 11.35017 | 1905 ft | 7 kts | 261° |
| 2026-05-06 18:55 | 47.25865 | 11.34918 | 1898 ft | 16 kts | 261° |
| 2026-05-06 18:55 | 47.25840 | 11.34692 | 1906 ft | 24 kts | 261° |
| 2026-05-06 18:55 | 47.25813 | 11.34445 | 1909 ft | 25 kts | 261° |
| 2026-05-06 18:56 | 47.25784 | 11.34180 | 1906 ft | 27 kts | 261° |
| 2026-05-06 18:56 | 47.25784 | 11.33945 | 1904 ft | 23 kts | 295° |
| 2026-05-06 18:56 | 47.25878 | 11.33742 | 1903 ft | 24 kts | 306° |
| 2026-05-06 18:56 | 47.25929 | 11.33529 | 1909 ft | 24 kts | 258° |
| 2026-05-06 18:57 | 47.25900 | 11.33286 | 1909 ft | 24 kts | 260° |
| 2026-05-06 18:57 | 47.25834 | 11.33094 | 1909 ft | 16 kts | 310° |
| 2026-05-06 18:57 | 47.25888 | 11.33161 | 1902 ft | 0 kts | 82° |
| 2026-05-06 18:58 | 47.25896 | 11.33238 | 1909 ft | 40 kts | 81° |
| 2026-05-06 18:58 | 47.25991 | 11.34133 | 1909 ft | 131 kts | 81° |
| 2026-05-06 18:58 | 47.26172 | 11.35675 | 2240 ft | 169 kts | 83° |
| 2026-05-06 18:58 | 47.26333 | 11.37478 | 3117 ft | 179 kts | 84° |
| 2026-05-06 18:59 | 47.26454 | 11.39348 | 4073 ft | 190 kts | 84° |
| 2026-05-06 18:59 | 47.26677 | 11.41288 | 5032 ft | 200 kts | 84° |
| 2026-05-06 18:59 | 47.26869 | 11.43368 | 6003 ft | 209 kts | 85° |
| 2026-05-06 18:59 | 47.27172 | 11.45510 | 6917 ft | 223 kts | 72° |
| 2026-05-06 19:00 | 47.27812 | 11.47723 | 7587 ft | 244 kts | 68° |
| 2026-05-06 19:00 | 47.28544 | 11.50143 | 7995 ft | 271 kts | 68° |
| 2026-05-06 19:00 | 47.29183 | 11.52842 | 8486 ft | 286 kts | 85° |
| 2026-05-06 19:00 | 47.29183 | 11.54785 | 8964 ft | 288 kts | 102° |
| 2026-05-06 19:01 | 47.28085 | 11.58164 | 10464 ft | 261 kts | 136° |
| 2026-05-06 19:01 | 47.26736 | 11.59714 | 11797 ft | 237 kts | 158° |
| 2026-05-06 19:01 | 47.25167 | 11.60456 | 12542 ft | 243 kts | 178° |
| 2026-05-06 19:01 | 47.23456 | 11.60298 | 12809 ft | 259 kts | 197° |
| 2026-05-06 19:02 | 47.21778 | 11.59124 | 13086 ft | 279 kts | 217° |
| 2026-05-06 19:02 | 47.20463 | 11.56901 | 13379 ft | 302 kts | 239° |
| 2026-05-06 19:02 | 47.19871 | 11.53822 | 13649 ft | 330 kts | 263° |
| 2026-05-06 19:02 | 47.20215 | 11.50367 | 13925 ft | 356 kts | 284° |
| 2026-05-06 19:03 | 47.21141 | 11.46919 | 14428 ft | 366 kts | 288° |
| 2026-05-06 19:03 | 47.21786 | 11.44602 | 14710 ft | 372 kts | 288° |
| 2026-05-06 19:03 | 47.22737 | 11.41005 | 14993 ft | 383 kts | 286° |
| 2026-05-06 19:03 | 47.23980 | 11.35963 | 15327 ft | 399 kts | 285° |
| 2026-05-06 19:04 | 47.24591 | 11.33390 | 15456 ft | 406 kts | 285° |
| 2026-05-06 19:04 | 47.25523 | 11.29422 | 15718 ft | 413 kts | 285° |
| 2026-05-06 19:04 | 47.26464 | 11.25403 | 16083 ft | 417 kts | 285° |
| 2026-05-06 19:04 | 47.27412 | 11.21353 | 16464 ft | 419 kts | 285° |
| 2026-05-06 19:05 | 47.28365 | 11.17280 | 16812 ft | 422 kts | 285° |
| 2026-05-06 19:05 | 47.29322 | 11.13171 | 17171 ft | 425 kts | 285° |
| 2026-05-06 19:05 | 47.30272 | 11.09082 | 17515 ft | 428 kts | 285° |
| 2026-05-06 19:05 | 47.31239 | 11.04923 | 17864 ft | 430 kts | 286° |
| 2026-05-06 19:06 | 47.32211 | 11.00727 | 18199 ft | 433 kts | 285° |
| 2026-05-06 19:06 | 47.33183 | 10.96505 | 18531 ft | 435 kts | 285° |
| 2026-05-06 19:06 | 47.34158 | 10.92273 | 18823 ft | 437 kts | 285° |
| 2026-05-06 19:06 | 47.35142 | 10.88019 | 19153 ft | 439 kts | 285° |
| 2026-05-06 19:07 | 47.36130 | 10.83739 | 19542 ft | 440 kts | 285° |
| 2026-05-06 19:07 | 47.37120 | 10.79450 | 19799 ft | 444 kts | 286° |
| 2026-05-06 19:07 | 47.38357 | 10.75251 | 19865 ft | 449 kts | 295° |
| 2026-05-06 19:07 | 47.40110 | 10.71417 | 19876 ft | 454 kts | 306° |
| 2026-05-06 19:08 | 47.42371 | 10.68147 | 20043 ft | 460 kts | 318° |
| 2026-05-06 19:08 | 47.44976 | 10.65383 | 20396 ft | 463 kts | 322° |
| 2026-05-06 19:08 | 47.47651 | 10.62680 | 20776 ft | 465 kts | 323° |
| 2026-05-06 19:08 | 47.50333 | 10.59964 | 21201 ft | 468 kts | 322° |
| 2026-05-06 19:09 | 47.53017 | 10.57221 | 21660 ft | 471 kts | 322° |
| 2026-05-06 19:09 | 47.55717 | 10.54453 | 22024 ft | 473 kts | 322° |
| 2026-05-06 19:09 | 47.58401 | 10.51696 | 22339 ft | 476 kts | 322° |
| 2026-05-06 19:09 | 47.61130 | 10.48880 | 22677 ft | 479 kts | 321° |
| 2026-05-06 19:10 | 47.63912 | 10.46007 | 23008 ft | 483 kts | 322° |
| 2026-05-06 19:10 | 47.66674 | 10.43157 | 23354 ft | 486 kts | 321° |
| 2026-05-06 19:10 | 47.69329 | 10.40146 | 23655 ft | 484 kts | 314° |
| 2026-05-06 19:10 | 47.71556 | 10.36434 | 23964 ft | 479 kts | 301° |
| 2026-05-06 19:11 | 47.73164 | 10.32143 | 24278 ft | 473 kts | 288° |
| 2026-05-06 19:11 | 47.74095 | 10.27497 | 24584 ft | 466 kts | 276° |
| 2026-05-06 19:11 | 47.74345 | 10.22740 | 24973 ft | 458 kts | 265° |
| 2026-05-06 19:11 | 47.74242 | 10.18025 | 25446 ft | 454 kts | 264° |
| 2026-05-06 19:12 | 47.74114 | 10.13349 | 25951 ft | 451 kts | 263° |
| 2026-05-06 19:12 | 47.73990 | 10.08715 | 26392 ft | 449 kts | 263° |
| 2026-05-06 19:12 | 47.73873 | 10.04075 | 26839 ft | 447 kts | 263° |
| 2026-05-06 19:12 | 47.73755 | 9.99478 | 27293 ft | 444 kts | 263° |
| 2026-05-06 19:13 | 47.73635 | 9.94946 | 27735 ft | 442 kts | 263° |
| 2026-05-06 19:13 | 47.73521 | 9.90397 | 28175 ft | 439 kts | 263° |
| 2026-05-06 19:13 | 47.73408 | 9.85870 | 28610 ft | 437 kts | 263° |
| 2026-05-06 19:13 | 47.73295 | 9.81374 | 29051 ft | 435 kts | 263° |
| 2026-05-06 19:14 | 47.73177 | 9.76874 | 29501 ft | 433 kts | 262° |
| 2026-05-06 19:14 | 47.73061 | 9.72417 | 29948 ft | 430 kts | 262° |
| 2026-05-06 19:14 | 47.72927 | 9.68007 | 30300 ft | 429 kts | 261° |
| 2026-05-06 19:14 | 47.72528 | 9.63632 | 30550 ft | 426 kts | 255° |
| 2026-05-06 19:15 | 47.71998 | 9.59302 | 30818 ft | 426 kts | 255° |
| 2026-05-06 19:15 | 47.71455 | 9.54977 | 31101 ft | 426 kts | 255° |
| 2026-05-06 19:15 | 47.70915 | 9.50636 | 31373 ft | 427 kts | 255° |
| 2026-05-06 19:15 | 47.70377 | 9.46291 | 31645 ft | 427 kts | 255° |
| 2026-05-06 19:16 | 47.69842 | 9.41998 | 31914 ft | 427 kts | 255° |
| 2026-05-06 19:16 | 47.69305 | 9.37670 | 32185 ft | 428 kts | 255° |
| 2026-05-06 19:16 | 47.68762 | 9.33316 | 32448 ft | 428 kts | 255° |
| 2026-05-06 19:16 | 47.68223 | 9.29010 | 32704 ft | 428 kts | 256° |
| 2026-05-06 19:17 | 47.67672 | 9.24628 | 32988 ft | 429 kts | 255° |
| 2026-05-06 19:17 | 47.67122 | 9.20267 | 33159 ft | 432 kts | 255° |
| 2026-05-06 19:17 | 47.66572 | 9.15903 | 33366 ft | 433 kts | 256° |
| 2026-05-06 19:17 | 47.66016 | 9.11514 | 33606 ft | 433 kts | 256° |
| 2026-05-06 19:18 | 47.65456 | 9.07126 | 33846 ft | 433 kts | 256° |
| 2026-05-06 19:18 | 47.64909 | 9.02766 | 34074 ft | 431 kts | 256° |
| 2026-05-06 19:18 | 47.64350 | 8.98376 | 34304 ft | 429 kts | 256° |
| 2026-05-06 19:18 | 47.63791 | 8.94030 | 34498 ft | 429 kts | 256° |
| 2026-05-06 19:19 | 47.63230 | 8.89679 | 34665 ft | 429 kts | 256° |
| 2026-05-06 19:19 | 47.62677 | 8.85377 | 34823 ft | 430 kts | 256° |
| 2026-05-06 19:19 | 47.62107 | 8.81012 | 34964 ft | 432 kts | 256° |
| 2026-05-06 19:20 | 47.60958 | 8.72232 | 34955 ft | 434 kts | 256° |
| 2026-05-06 19:20 | 47.59812 | 8.63448 | 34937 ft | 434 kts | 256° |
| 2026-05-06 19:21 | 47.58655 | 8.54663 | 34934 ft | 434 kts | 255° |
| 2026-05-06 19:21 | 47.57494 | 8.45897 | 34935 ft | 434 kts | 255° |
| 2026-05-06 19:22 | 47.56326 | 8.37137 | 34951 ft | 434 kts | 256° |
| 2026-05-06 19:22 | 47.55135 | 8.28286 | 34935 ft | 438 kts | 256° |
| 2026-05-06 19:23 | 47.53938 | 8.19412 | 34933 ft | 439 kts | 256° |
| 2026-05-06 19:23 | 47.52725 | 8.10551 | 34935 ft | 438 kts | 256° |
| 2026-05-06 19:24 | 47.51521 | 8.01701 | 34925 ft | 437 kts | 256° |
| 2026-05-06 19:24 | 47.50312 | 7.92887 | 34898 ft | 437 kts | 255° |
| 2026-05-06 19:25 | 47.49102 | 7.84158 | 34909 ft | 436 kts | 255° |
| 2026-05-06 19:25 | 47.47878 | 7.75359 | 34916 ft | 437 kts | 255° |
| 2026-05-06 19:26 | 47.47014 | 7.66450 | 34896 ft | 442 kts | 267° |
| 2026-05-06 19:26 | 47.47374 | 7.61918 | 34899 ft | 448 kts | 278° |
| 2026-05-06 19:26 | 47.48074 | 7.57619 | 34916 ft | 449 kts | 280° |
| 2026-05-06 19:27 | 47.49622 | 7.48695 | 34936 ft | 450 kts | 281° |
| 2026-05-06 19:27 | 47.51140 | 7.39680 | 34923 ft | 451 kts | 280° |
| 2026-05-06 19:28 | 47.52625 | 7.30700 | 34920 ft | 452 kts | 280° |
| 2026-05-06 19:28 | 47.54117 | 7.21635 | 34917 ft | 452 kts | 280° |
| 2026-05-06 19:29 | 47.55590 | 7.12632 | 34916 ft | 452 kts | 280° |
| 2026-05-06 19:29 | 47.57063 | 7.03570 | 34914 ft | 453 kts | 280° |
| 2026-05-06 19:30 | 47.58535 | 6.94475 | 34908 ft | 453 kts | 280° |
| 2026-05-06 19:30 | 47.60004 | 6.85380 | 34905 ft | 453 kts | 281° |
| 2026-05-06 19:31 | 47.61466 | 6.76276 | 34911 ft | 454 kts | 281° |
| 2026-05-06 19:31 | 47.63633 | 6.62654 | 34907 ft | 455 kts | 281° |
| 2026-05-06 19:32 | 47.65076 | 6.53502 | 34908 ft | 455 kts | 281° |
| 2026-05-06 19:32 | 47.66511 | 6.44364 | 34905 ft | 455 kts | 281° |
| 2026-05-06 19:33 | 47.67942 | 6.35212 | 34907 ft | 455 kts | 281° |
| 2026-05-06 19:33 | 47.69534 | 6.26189 | 34918 ft | 457 kts | 285° |
| 2026-05-06 19:34 | 47.71469 | 6.17119 | 34907 ft | 457 kts | 285° |
| 2026-05-06 19:34 | 47.73374 | 6.08157 | 34906 ft | 457 kts | 285° |
| 2026-05-06 19:35 | 47.75275 | 5.99152 | 34908 ft | 457 kts | 285° |
| 2026-05-06 19:35 | 47.77172 | 5.90118 | 34918 ft | 457 kts | 285° |
| 2026-05-06 19:36 | 47.79066 | 5.81071 | 34912 ft | 458 kts | 285° |
| 2026-05-06 19:36 | 47.80951 | 5.72027 | 34915 ft | 458 kts | 285° |
| 2026-05-06 19:37 | 47.82827 | 5.62975 | 34914 ft | 458 kts | 285° |
| 2026-05-06 19:37 | 47.84379 | 5.55448 | 34918 ft | 458 kts | 285° |
| 2026-05-06 19:38 | 47.86541 | 5.44933 | 34924 ft | 458 kts | 285° |
| 2026-05-06 19:38 | 47.88387 | 5.35911 | 34923 ft | 458 kts | 285° |
| 2026-05-06 19:39 | 47.89967 | 5.28377 | 34923 ft | 459 kts | 289° |
| 2026-05-06 19:39 | 47.91953 | 5.22833 | 35118 ft | 459 kts | 305° |
| 2026-05-06 19:39 | 47.93982 | 5.19244 | 35234 ft | 462 kts | 311° |
| 2026-05-06 19:40 | 47.98310 | 5.12225 | 34960 ft | 459 kts | 311° |
| 2026-05-06 19:40 | 48.01898 | 5.06343 | 34886 ft | 461 kts | 311° |
| 2026-05-06 19:41 | 48.06197 | 4.99229 | 34921 ft | 461 kts | 311° |
| 2026-05-06 19:41 | 48.10422 | 4.92223 | 34930 ft | 461 kts | 311° |
| 2026-05-06 19:42 | 48.14752 | 4.85019 | 34931 ft | 461 kts | 311° |
| 2026-05-06 19:42 | 48.19047 | 4.77859 | 34933 ft | 462 kts | 311° |
| 2026-05-06 19:43 | 48.23314 | 4.70726 | 34937 ft | 462 kts | 311° |
| 2026-05-06 19:43 | 48.27585 | 4.63556 | 34926 ft | 460 kts | 311° |
| 2026-05-06 19:44 | 48.31850 | 4.56375 | 34933 ft | 460 kts | 311° |
| 2026-05-06 19:44 | 48.36109 | 4.49198 | 34931 ft | 460 kts | 311° |
| 2026-05-06 19:45 | 48.40298 | 4.42117 | 34928 ft | 460 kts | 311° |
| 2026-05-06 19:45 | 48.44549 | 4.34910 | 34929 ft | 460 kts | 310° |
| 2026-05-06 19:46 | 48.48789 | 4.27690 | 34927 ft | 458 kts | 311° |
| 2026-05-06 19:46 | 48.53007 | 4.20497 | 34939 ft | 458 kts | 310° |
| 2026-05-06 19:47 | 48.57225 | 4.13280 | 34941 ft | 458 kts | 310° |
| 2026-05-06 19:47 | 48.61432 | 4.06064 | 34933 ft | 457 kts | 310° |
| 2026-05-06 19:48 | 48.65639 | 3.98840 | 34934 ft | 457 kts | 310° |
| 2026-05-06 19:48 | 48.69805 | 3.91655 | 34936 ft | 457 kts | 310° |
| 2026-05-06 19:49 | 48.74123 | 3.84603 | 34940 ft | 458 kts | 315° |
| 2026-05-06 19:49 | 48.78634 | 3.77904 | 34939 ft | 458 kts | 315° |
| 2026-05-06 19:50 | 48.83198 | 3.71118 | 34937 ft | 457 kts | 315° |
| 2026-05-06 19:50 | 48.87712 | 3.64378 | 34946 ft | 458 kts | 315° |
| 2026-05-06 19:51 | 48.92249 | 3.57582 | 34943 ft | 457 kts | 315° |
| 2026-05-06 19:51 | 48.96779 | 3.50776 | 34952 ft | 457 kts | 315° |
| 2026-05-06 19:52 | 49.01295 | 3.43980 | 34947 ft | 457 kts | 315° |
| 2026-05-06 19:52 | 49.05809 | 3.37157 | 34945 ft | 457 kts | 315° |
| 2026-05-06 19:53 | 49.10263 | 3.30418 | 34943 ft | 457 kts | 314° |
| 2026-05-06 19:53 | 49.14721 | 3.23644 | 34947 ft | 457 kts | 314° |
| 2026-05-06 19:54 | 49.19224 | 3.16793 | 34948 ft | 457 kts | 314° |
| 2026-05-06 19:54 | 49.23723 | 3.09934 | 34944 ft | 456 kts | 314° |
| 2026-05-06 19:55 | 49.28211 | 3.03065 | 34954 ft | 455 kts | 314° |
| 2026-05-06 19:55 | 49.32686 | 2.96193 | 34953 ft | 456 kts | 314° |
| 2026-05-06 19:56 | 49.37170 | 2.89291 | 34945 ft | 456 kts | 314° |
| 2026-05-06 19:56 | 49.41614 | 2.82436 | 34952 ft | 456 kts | 314° |
| 2026-05-06 19:57 | 49.46090 | 2.75506 | 34953 ft | 456 kts | 314° |
| 2026-05-06 19:57 | 49.50550 | 2.68593 | 34957 ft | 455 kts | 314° |
| 2026-05-06 19:58 | 49.54976 | 2.61709 | 34954 ft | 448 kts | 314° |
| 2026-05-06 19:58 | 49.59310 | 2.54944 | 34955 ft | 445 kts | 314° |
| 2026-05-06 19:59 | 49.63462 | 2.47740 | 34976 ft | 451 kts | 310° |
| 2026-05-06 19:59 | 49.67516 | 2.40359 | 34970 ft | 452 kts | 310° |
| 2026-05-06 20:00 | 49.71577 | 2.32946 | 34978 ft | 451 kts | 310° |
| 2026-05-06 20:00 | 49.75633 | 2.25537 | 34973 ft | 451 kts | 310° |
| 2026-05-06 20:01 | 49.79651 | 2.18183 | 34975 ft | 447 kts | 310° |
| 2026-05-06 20:01 | 49.83643 | 2.10837 | 34973 ft | 443 kts | 310° |
| 2026-05-06 20:02 | 49.87607 | 2.03540 | 34971 ft | 443 kts | 310° |
| 2026-05-06 20:02 | 49.91587 | 1.96193 | 34985 ft | 449 kts | 310° |
| 2026-05-06 20:03 | 49.95611 | 1.88757 | 34980 ft | 449 kts | 310° |
| 2026-05-06 20:03 | 49.99629 | 1.81302 | 34983 ft | 449 kts | 310° |
| 2026-05-06 20:04 | 50.03642 | 1.73827 | 34982 ft | 449 kts | 310° |
| 2026-05-06 20:04 | 50.07672 | 1.66629 | 34493 ft | 440 kts | 316° |
| 2026-05-06 20:05 | 50.09953 | 1.63460 | 33738 ft | 439 kts | 319° |
| 2026-05-06 20:05 | 50.12262 | 1.60342 | 32878 ft | 440 kts | 319° |
| 2026-05-06 20:05 | 50.14580 | 1.57214 | 32059 ft | 441 kts | 319° |
| 2026-05-06 20:05 | 50.16905 | 1.54065 | 31254 ft | 443 kts | 318° |
| 2026-05-06 20:06 | 50.19232 | 1.50898 | 30408 ft | 446 kts | 318° |
| 2026-05-06 20:06 | 50.21577 | 1.47693 | 29453 ft | 449 kts | 317° |
| 2026-05-06 20:06 | 50.23931 | 1.44476 | 28487 ft | 451 kts | 317° |
| 2026-05-06 20:06 | 50.26290 | 1.41255 | 27605 ft | 457 kts | 317° |
| 2026-05-06 20:07 | 50.28673 | 1.37998 | 26679 ft | 457 kts | 317° |
| 2026-05-06 20:07 | 50.31073 | 1.34717 | 25765 ft | 457 kts | 318° |
| 2026-05-06 20:07 | 50.33475 | 1.31428 | 24915 ft | 457 kts | 318° |
| 2026-05-06 20:07 | 50.35859 | 1.28158 | 24340 ft | 460 kts | 318° |
| 2026-05-06 20:08 | 50.38268 | 1.24848 | 23810 ft | 457 kts | 318° |
| 2026-05-06 20:08 | 50.40637 | 1.21590 | 23095 ft | 449 kts | 318° |
| 2026-05-06 20:08 | 50.42967 | 1.18377 | 22384 ft | 441 kts | 317° |
| 2026-05-06 20:08 | 50.45293 | 1.15158 | 21963 ft | 452 kts | 317° |
| 2026-05-06 20:09 | 50.47656 | 1.11887 | 21611 ft | 452 kts | 317° |
| 2026-05-06 20:09 | 50.49981 | 1.08666 | 20972 ft | 440 kts | 317° |
| 2026-05-06 20:09 | 50.52208 | 1.05412 | 19828 ft | 436 kts | 313° |
| 2026-05-06 20:09 | 50.54271 | 1.01947 | 18774 ft | 431 kts | 312° |
| 2026-05-06 20:10 | 50.56277 | 0.98544 | 17700 ft | 426 kts | 312° |
| 2026-05-06 20:10 | 50.58298 | 0.95110 | 16603 ft | 419 kts | 312° |
| 2026-05-06 20:10 | 50.60245 | 0.91806 | 15610 ft | 413 kts | 313° |
| 2026-05-06 20:10 | 50.62193 | 0.88506 | 14712 ft | 408 kts | 313° |
| 2026-05-06 20:11 | 50.64112 | 0.85258 | 13818 ft | 402 kts | 313° |
| 2026-05-06 20:11 | 50.66005 | 0.82049 | 12834 ft | 397 kts | 313° |
| 2026-05-06 20:11 | 50.67831 | 0.78826 | 11853 ft | 391 kts | 309° |
| 2026-05-06 20:11 | 50.69507 | 0.75545 | 11341 ft | 375 kts | 309° |
| 2026-05-06 20:12 | 50.71098 | 0.72427 | 11018 ft | 356 kts | 309° |
| 2026-05-06 20:12 | 50.72607 | 0.69466 | 10766 ft | 337 kts | 309° |
| 2026-05-06 20:12 | 50.74050 | 0.66656 | 10548 ft | 320 kts | 309° |
| 2026-05-06 20:12 | 50.75410 | 0.63992 | 10366 ft | 303 kts | 309° |
| 2026-05-06 20:13 | 50.76703 | 0.61454 | 10163 ft | 289 kts | 309° |
| 2026-05-06 20:13 | 50.77938 | 0.59028 | 9817 ft | 280 kts | 309° |
| 2026-05-06 20:13 | 50.79153 | 0.56641 | 9314 ft | 278 kts | 309° |
| 2026-05-06 20:13 | 50.80364 | 0.54258 | 9029 ft | 278 kts | 309° |
| 2026-05-06 20:14 | 50.81574 | 0.51866 | 8981 ft | 278 kts | 309° |
| 2026-05-06 20:14 | 50.82784 | 0.49490 | 8984 ft | 277 kts | 309° |
| 2026-05-06 20:14 | 50.83976 | 0.47146 | 8988 ft | 277 kts | 309° |
| 2026-05-06 20:14 | 50.85185 | 0.44761 | 8993 ft | 275 kts | 309° |
| 2026-05-06 20:15 | 50.86365 | 0.42430 | 8583 ft | 269 kts | 309° |
| 2026-05-06 20:15 | 50.87544 | 0.40095 | 8132 ft | 273 kts | 309° |
| 2026-05-06 20:15 | 50.88723 | 0.37761 | 7984 ft | 272 kts | 308° |
| 2026-05-06 20:15 | 50.89905 | 0.35426 | 7974 ft | 271 kts | 309° |
| 2026-05-06 20:16 | 50.91059 | 0.33134 | 7973 ft | 270 kts | 308° |
| 2026-05-06 20:16 | 50.92209 | 0.30754 | 7978 ft | 270 kts | 307° |
| 2026-05-06 20:16 | 50.93329 | 0.28413 | 7986 ft | 267 kts | 307° |
| 2026-05-06 20:16 | 50.94412 | 0.26147 | 7979 ft | 246 kts | 307° |
| 2026-05-06 20:17 | 50.95426 | 0.24026 | 7971 ft | 240 kts | 307° |
| 2026-05-06 20:17 | 50.96430 | 0.21922 | 7973 ft | 239 kts | 307° |
| 2026-05-06 20:17 | 50.97429 | 0.19833 | 7989 ft | 238 kts | 307° |
| 2026-05-06 20:17 | 50.98432 | 0.17729 | 7984 ft | 238 kts | 307° |
| 2026-05-06 20:18 | 50.99436 | 0.15617 | 7979 ft | 240 kts | 306° |
| 2026-05-06 20:18 | 51.00115 | 0.13249 | 7978 ft | 241 kts | 282° |
| 2026-05-06 20:18 | 51.00350 | 0.10627 | 7998 ft | 240 kts | 277° |
| 2026-05-06 20:18 | 51.00513 | 0.07986 | 7993 ft | 240 kts | 276° |
| 2026-05-06 20:19 | 51.00665 | 0.05359 | 7997 ft | 240 kts | 276° |
| 2026-05-06 20:19 | 51.00819 | 0.02719 | 7992 ft | 240 kts | 276° |
| 2026-05-06 20:19 | 51.00972 | 0.00090 | 7886 ft | 234 kts | 276° |
| 2026-05-06 20:19 | 51.01113 | -0.02477 | 7440 ft | 234 kts | 276° |
| 2026-05-06 20:20 | 51.01242 | -0.05050 | 6958 ft | 234 kts | 276° |
| 2026-05-06 20:20 | 51.01373 | -0.07622 | 6503 ft | 233 kts | 276° |
| 2026-05-06 20:20 | 51.01502 | -0.10189 | 6096 ft | 233 kts | 276° |
| 2026-05-06 20:20 | 51.01636 | -0.12762 | 5977 ft | 234 kts | 276° |
| 2026-05-06 20:21 | 51.01768 | -0.15332 | 5970 ft | 233 kts | 276° |
| 2026-05-06 20:21 | 51.01894 | -0.17853 | 5745 ft | 226 kts | 276° |
| 2026-05-06 20:21 | 51.02023 | -0.20342 | 5217 ft | 230 kts | 276° |
| 2026-05-06 20:21 | 51.02153 | -0.22881 | 5016 ft | 230 kts | 276° |
| 2026-05-06 20:22 | 51.02282 | -0.25421 | 4970 ft | 231 kts | 276° |
| 2026-05-06 20:22 | 51.02416 | -0.27964 | 4972 ft | 229 kts | 276° |
| 2026-05-06 20:22 | 51.02542 | -0.30442 | 4554 ft | 224 kts | 276° |
| 2026-05-06 20:22 | 51.02662 | -0.32939 | 4112 ft | 228 kts | 276° |
| 2026-05-06 20:23 | 51.02783 | -0.35468 | 3980 ft | 229 kts | 276° |
| 2026-05-06 20:23 | 51.02895 | -0.37885 | 3892 ft | 207 kts | 276° |
| 2026-05-06 20:23 | 51.02992 | -0.40051 | 3800 ft | 189 kts | 276° |
| 2026-05-06 20:23 | 51.03051 | -0.41421 | 3590 ft | 186 kts | 277° |
| 2026-05-06 20:24 | 51.03524 | -0.43259 | 3195 ft | 181 kts | 313° |
| 2026-05-06 20:24 | 51.04964 | -0.44501 | 3017 ft | 180 kts | 340° |
| 2026-05-06 20:24 | 51.06138 | -0.45187 | 2999 ft | 179 kts | 341° |
| 2026-05-06 20:24 | 51.07309 | -0.45873 | 2990 ft | 180 kts | 341° |
| 2026-05-06 20:25 | 51.08104 | -0.46341 | 2984 ft | 177 kts | 341° |
| 2026-05-06 20:25 | 51.09288 | -0.46506 | 2576 ft | 174 kts | 13° |
| 2026-05-06 20:25 | 51.10281 | -0.45484 | 2184 ft | 176 kts | 44° |
| 2026-05-06 20:25 | 51.11079 | -0.44007 | 2002 ft | 177 kts | 55° |
| 2026-05-06 20:26 | 51.11560 | -0.42199 | 1965 ft | 178 kts | 70° |
| 2026-05-06 20:26 | 51.11867 | -0.40311 | 1972 ft | 167 kts | 74° |
| 2026-05-06 20:26 | 51.12113 | -0.38573 | 1989 ft | 159 kts | 74° |
| 2026-05-06 20:26 | 51.12351 | -0.36859 | 1989 ft | 159 kts | 74° |
| 2026-05-06 20:27 | 51.12588 | -0.35145 | 1990 ft | 159 kts | 75° |
| 2026-05-06 20:27 | 51.12826 | -0.33421 | 1886 ft | 159 kts | 74° |
| 2026-05-06 20:27 | 51.13062 | -0.31716 | 1690 ft | 157 kts | 74° |
| 2026-05-06 20:27 | 51.13291 | -0.30048 | 1466 ft | 148 kts | 75° |
| 2026-05-06 20:28 | 51.13494 | -0.28581 | 1243 ft | 131 kts | 75° |
| 2026-05-06 20:28 | 51.13686 | -0.27164 | 1045 ft | 130 kts | 75° |
| 2026-05-06 20:28 | 51.13892 | -0.25771 | 873 ft | 128 kts | 77° |
| 2026-05-06 20:28 | 51.14084 | -0.24374 | 706 ft | 129 kts | 77° |
| 2026-05-06 20:29 | 51.14275 | -0.22991 | 525 ft | 127 kts | 78° |
| 2026-05-06 20:29 | 51.14461 | -0.21603 | 366 ft | 128 kts | 78° |
| 2026-05-06 20:29 | 51.14651 | -0.20218 | 225 ft | 127 kts | 78° |
| 2026-05-06 20:29 | 51.14820 | -0.18982 | 210 ft | 102 kts | 77° |
| 2026-05-06 20:30 | 51.14916 | -0.18300 | 212 ft | 33 kts | 77° |
| 2026-05-06 20:30 | 51.15084 | -0.17746 | 219 ft | 1 kts | 4° |
| 2026-05-06 20:30 | 51.15095 | -0.17749 | 210 ft | 3 kts | 346° |
| 2026-05-06 20:31 | 51.15121 | -0.17755 | 210 ft | 5 kts | 352° |
| 2026-05-06 20:31 | 51.15125 | -0.17756 | 210 ft | 0 kts | 348° |
| 2026-05-06 20:33 | 51.15127 | -0.17757 | 210 ft | 1 kts | 348° |
| 2026-05-06 20:33 | 51.15151 | -0.17765 | 210 ft | 6 kts | 349° |
| 2026-05-06 20:34 | 51.15202 | -0.17773 | 216 ft | 9 kts | 351° |
| 2026-05-06 20:34 | 51.15260 | -0.17743 | 218 ft | 11 kts | 69° |
| 2026-05-06 20:34 | 51.15277 | -0.17618 | 212 ft | 13 kts | 78° |
| 2026-05-06 20:34 | 51.15296 | -0.17468 | 209 ft | 15 kts | 82° |
| 2026-05-06 20:35 | 51.15366 | -0.17373 | 212 ft | 17 kts | 347° |
| 2026-05-06 20:35 | 51.15476 | -0.17413 | 209 ft | 11 kts | 347° |
| 2026-05-06 20:35 | 51.15557 | -0.17441 | 211 ft | 13 kts | 347° |
| 2026-05-06 20:35 | 51.15653 | -0.17475 | 216 ft | 15 kts | 347° |
| 2026-05-06 20:36 | 51.15761 | -0.17477 | 210 ft | 17 kts | 56° |
| 2026-05-06 20:36 | 51.15791 | -0.17288 | 212 ft | 18 kts | 78° |
| 2026-05-06 20:36 | 51.15808 | -0.17164 | 217 ft | 10 kts | 77° |
| 2026-05-06 20:36 | 51.15853 | -0.17075 | 213 ft | 12 kts | 18° |
| 2026-05-06 20:37 | 51.15893 | -0.17097 | 219 ft | 3 kts | 318° |
| 2026-05-06 20:37 | 51.15915 | -0.17132 | 219 ft | 6 kts | 315° |
| 2026-05-06 20:37 | 51.15927 | -0.17151 | 215 ft | 0 kts | 315° |